Time;durP1;ratioP1;P1;durP2;ratioP2;P2;SDS_P1;SDS_P2;PMS_P1;PMS_P2;Temp;Humidity;BMP_temperature;BMP_pressure;BME280_temperature;BME280_humidity;BME280_pressure;Samples;Min_cycle;Max_cycle;Signal;HPM_P1;HPM_P2
2023/08/31 00:01:09;;;;;;;36.35;30.60;;;17.60;99.90;;;;;;5032632;28;20099;-63
2023/08/31 00:03:35;;;;;;;31.42;28.55;;;17.80;99.90;;;;;;5031324;28;20049;-63
2023/08/31 00:06:07;;;;;;;32.75;29.55;;;17.70;99.90;;;;;;5030210;28;20571;-62
2023/08/31 00:08:33;;;;;;;33.08;29.80;;;17.60;99.90;;;;;;5030711;28;20540;-63
2023/08/31 00:11:02;;;;;;;32.50;29.27;;;17.80;99.90;;;;;;5042760;28;20041;-62
2023/08/31 00:13:28;;;;;;;34.47;31.13;;;17.80;99.90;;;;;;5032473;28;20037;-64
2023/08/31 00:15:58;;;;;;;33.92;30.58;;;17.70;99.90;;;;;;5029205;28;20071;-67
2023/08/31 00:18:24;;;;;;;33.63;30.33;;;17.60;99.90;;;;;;5030521;28;20511;-65
2023/08/31 00:20:50;;;;;;;34.30;31.10;;;17.30;99.90;;;;;;5032294;28;20035;-65
2023/08/31 00:23:16;;;;;;;35.22;31.83;;;17.20;99.90;;;;;;5036653;28;20064;-65
2023/08/31 00:25:43;;;;;;;34.58;31.15;;;17.30;99.90;;;;;;5037624;28;20541;-65
2023/08/31 00:28:09;;;;;;;34.78;31.15;;;17.10;99.90;;;;;;5031300;28;20053;-65
2023/08/31 00:30:35;;;;;;;35.08;31.83;;;17.00;99.90;;;;;;5032464;28;20087;-66
2023/08/31 00:33:00;;;;;;;36.67;32.97;;;17.30;99.90;;;;;;5032398;28;20427;-65
2023/08/31 00:35:27;;;;;;;34.55;31.60;;;17.30;99.90;;;;;;5031453;28;20102;-65
2023/08/31 00:37:58;;;;;;;35.92;32.60;;;17.10;99.90;;;;;;5031205;28;20037;-65
2023/08/31 00:40:24;;;;;;;37.65;34.15;;;17.40;99.90;;;;;;5033786;28;20091;-65
2023/08/31 00:42:50;;;;;;;37.30;33.80;;;17.40;99.90;;;;;;5030387;28;20038;-65
2023/08/31 00:45:15;;;;;;;36.72;33.45;;;17.40;99.90;;;;;;5032069;28;20068;-65
2023/08/31 00:47:41;;;;;;;38.58;34.92;;;17.30;99.90;;;;;;5031002;28;20033;-65
2023/08/31 00:50:08;;;;;;;38.13;34.67;;;17.50;99.90;;;;;;5031993;28;20038;-65
2023/08/31 00:52:34;;;;;;;37.60;34.08;;;17.30;99.90;;;;;;5030826;28;20081;-65
2023/08/31 00:55:04;;;;;;;38.63;35.03;;;17.40;99.90;;;;;;5035323;28;20076;-65
2023/08/31 00:57:30;;;;;;;37.13;33.65;;;17.30;99.90;;;;;;5031007;28;20561;-65
2023/08/31 00:59:56;;;;;;;37.78;34.30;;;17.10;99.90;;;;;;5030573;28;20143;-65
2023/08/31 01:02:30;;;;;;;40.60;36.88;;;16.90;99.90;;;;;;5029736;28;20083;-65
2023/08/31 01:05:03;;;;;;;39.97;36.45;;;16.80;99.90;;;;;;5030107;28;20043;-65
2023/08/31 01:07:52;;;;;;;40.08;36.50;;;16.70;99.90;;;;;;5030149;28;20471;-65
2023/08/31 01:10:46;;;;;;;37.70;34.50;;;17.10;99.90;;;;;;5037219;28;20048;-65
2023/08/31 01:13:15;;;;;;;39.40;35.90;;;17.00;99.90;;;;;;5035663;28;20041;-65
2023/08/31 01:15:52;;;;;;;40.45;36.72;;;17.00;99.90;;;;;;5031420;28;20037;-65
2023/08/31 01:18:21;;;;;;;41.33;37.55;;;17.00;99.90;;;;;;5023889;28;20045;-65
2023/08/31 01:21:01;;;;;;;40.63;37.15;;;17.00;99.90;;;;;;5031172;28;20160;-65
2023/08/31 01:23:40;;;;;;;42.75;39.22;;;16.60;99.90;;;;;;5029653;28;20166;-65
2023/08/31 01:26:05;;;;;;;39.00;35.67;;;17.40;99.90;;;;;;5028327;28;20052;-65
2023/08/31 01:28:31;;;;;;;40.70;37.00;;;17.40;99.90;;;;;;5034444;28;20048;-69
2023/08/31 01:30:57;;;;;;;38.42;35.22;;;17.30;99.90;;;;;;5033639;28;20427;-68
2023/08/31 01:33:22;;;;;;;42.75;38.78;;;17.90;99.90;;;;;;5026959;28;20033;-68
2023/08/31 01:35:53;;;;;;;39.50;36.13;;;17.70;99.90;;;;;;5029608;28;20040;-68
2023/08/31 01:38:25;;;;;;;33.90;31.00;;;18.10;99.90;;;;;;5030971;28;20060;-67
2023/08/31 01:40:58;;;;;;;35.20;32.08;;;18.00;99.90;;;;;;5030848;28;20056;-68
2023/08/31 01:43:25;;;;;;;38.05;34.58;;;18.00;99.90;;;;;;5026709;28;20108;-68
2023/08/31 01:45:50;;;;;;;40.00;36.28;;;17.70;99.90;;;;;;5029855;28;20037;-68
2023/08/31 01:48:16;;;;;;;39.10;35.15;;;17.80;99.90;;;;;;5029717;28;20048;-68
2023/08/31 01:50:42;;;;;;;39.92;35.90;;;18.10;99.90;;;;;;5030654;28;20033;-67
2023/08/31 01:53:08;;;;;;;39.35;35.85;;;18.20;99.90;;;;;;5028391;28;20041;-68
2023/08/31 01:55:33;;;;;;;38.03;34.67;;;17.90;99.90;;;;;;5030484;28;20077;-67
2023/08/31 01:57:59;;;;;;;36.25;33.10;;;17.70;99.90;;;;;;5011615;28;20529;-67
2023/08/31 02:00:26;;;;;;;37.17;33.85;;;18.00;99.90;;;;;;5028675;28;20045;-68
2023/08/31 02:02:51;;;;;;;35.60;32.55;;;17.70;99.90;;;;;;5031079;28;20056;-68
2023/08/31 02:05:17;;;;;;;36.75;33.53;;;17.80;99.90;;;;;;5030157;28;20045;-68
2023/08/31 02:07:43;;;;;;;36.95;33.78;;;18.10;99.90;;;;;;5031432;28;20037;-68
2023/08/31 02:10:09;;;;;;;34.63;31.70;;;17.70;99.90;;;;;;5030121;28;20125;-68
2023/08/31 02:12:36;;;;;;;37.92;34.72;;;17.80;99.90;;;;;;5028424;28;20033;-68
2023/08/31 02:15:06;;;;;;;37.45;34.20;;;17.80;99.90;;;;;;5029850;28;20703;-68
2023/08/31 02:17:31;;;;;;;34.95;31.58;;;18.10;99.90;;;;;;5027811;28;20045;-68
2023/08/31 02:19:57;;;;;;;35.97;32.80;;;18.30;99.90;;;;;;5029321;28;20033;-68
2023/08/31 02:22:23;;;;;;;37.13;33.47;;;18.30;99.90;;;;;;5022402;28;20104;-68
2023/08/31 02:24:48;;;;;;;35.15;32.03;;;18.20;99.90;;;;;;5028999;28;20088;-67
2023/08/31 02:27:14;;;;;;;35.78;32.40;;;18.20;99.90;;;;;;5021272;28;20131;-68
2023/08/31 02:29:40;;;;;;;35.35;32.22;;;18.30;99.90;;;;;;5028631;28;20045;-68
2023/08/31 02:32:06;;;;;;;36.97;33.47;;;18.20;99.90;;;;;;5030224;28;20127;-68
2023/08/31 02:34:31;;;;;;;37.40;34.17;;;17.90;99.90;;;;;;5027880;28;20491;-68
2023/08/31 02:36:57;;;;;;;36.10;32.65;;;17.70;99.90;;;;;;5031121;28;20306;-68
2023/08/31 02:39:23;;;;;;;36.42;32.97;;;17.80;99.90;;;;;;5020498;28;20478;-63
2023/08/31 02:41:48;;;;;;;37.33;33.42;;;18.20;99.90;;;;;;5010938;28;20041;-64
2023/08/31 02:44:14;;;;;;;34.33;31.35;;;17.70;99.90;;;;;;5029395;28;20444;-63
2023/08/31 02:46:40;;;;;;;34.78;31.75;;;18.00;99.90;;;;;;5020564;28;20037;-64
2023/08/31 02:49:05;;;;;;;35.33;32.05;;;17.60;99.90;;;;;;5037980;28;20049;-64
2023/08/31 02:51:31;;;;;;;34.63;31.63;;;17.90;99.90;;;;;;5031135;28;20040;-63
2023/08/31 02:53:56;;;;;;;35.58;32.40;;;17.60;99.90;;;;;;5029720;28;20038;-62
2023/08/31 02:56:22;;;;;;;33.97;31.17;;;18.00;99.90;;;;;;5029357;28;20045;-63
2023/08/31 02:58:47;;;;;;;34.38;31.35;;;17.70;99.90;;;;;;5029937;28;20484;-62
2023/08/31 03:01:13;;;;;;;33.90;30.70;;;17.80;99.90;;;;;;5026938;28;20547;-65
2023/08/31 03:03:40;;;;;;;34.88;31.83;;;18.20;99.90;;;;;;5035911;28;20147;-64
2023/08/31 03:06:07;;;;;;;34.50;31.35;;;18.00;99.90;;;;;;5030439;28;20136;-63
2023/08/31 03:08:33;;;;;;;30.90;28.08;;;17.90;99.90;;;;;;5029398;28;20109;-63
2023/08/31 03:10:59;;;;;;;32.25;29.00;;;17.90;99.90;;;;;;5031275;28;20076;-67
2023/08/31 03:13:24;;;;;;;31.65;28.85;;;17.80;99.90;;;;;;5033202;28;20041;-64
2023/08/31 03:15:50;;;;;;;30.75;28.08;;;17.90;99.90;;;;;;5033490;28;20037;-64
2023/08/31 03:18:16;;;;;;;30.25;27.80;;;17.80;99.90;;;;;;5031234;28;20117;-64
2023/08/31 03:20:41;;;;;;;30.25;27.73;;;17.70;99.90;;;;;;5029370;28;20171;-65
2023/08/31 03:23:07;;;;;;;28.92;26.33;;;17.80;99.90;;;;;;5034439;28;20049;-64
2023/08/31 03:25:32;;;;;;;28.95;26.35;;;17.80;99.90;;;;;;5033186;28;20514;-63
2023/08/31 03:27:58;;;;;;;29.77;27.23;;;17.60;99.90;;;;;;5030906;28;20045;-64
2023/08/31 03:30:23;;;;;;;29.02;26.63;;;17.80;99.90;;;;;;5022463;28;20045;-63
2023/08/31 03:32:49;;;;;;;30.67;28.25;;;17.80;99.90;;;;;;5028042;28;20046;-63
2023/08/31 03:35:15;;;;;;;30.15;27.35;;;17.80;99.90;;;;;;5038011;28;20538;-64
2023/08/31 03:37:40;;;;;;;30.80;28.17;;;17.60;99.90;;;;;;5035169;28;20124;-64
2023/08/31 03:40:07;;;;;;;31.10;28.40;;;17.50;99.90;;;;;;5028351;28;20121;-63
2023/08/31 03:42:34;;;;;;;32.22;28.63;;;17.60;99.90;;;;;;5031198;28;20041;-63
2023/08/31 03:44:59;;;;;;;30.85;28.05;;;17.40;99.90;;;;;;5033177;28;20037;-62
2023/08/31 03:47:25;;;;;;;31.80;29.00;;;17.40;99.90;;;;;;5027962;28;20038;-64
2023/08/31 03:49:50;;;;;;;30.67;28.17;;;17.60;99.90;;;;;;5033357;28;20076;-65
2023/08/31 03:52:16;;;;;;;31.33;28.73;;;17.50;99.90;;;;;;5032805;28;20491;-66
2023/08/31 03:54:42;;;;;;;32.35;29.27;;;17.60;99.90;;;;;;5032722;28;20595;-66
2023/08/31 03:57:07;;;;;;;32.35;29.30;;;19.20;99.90;;;;;;5029965;28;20644;-65
2023/08/31 03:59:33;;;;;;;31.52;28.90;;;17.20;99.90;;;;;;5032833;28;20080;-66
2023/08/31 04:01:59;;;;;;;33.60;30.33;;;17.70;99.90;;;;;;5033302;28;20037;-65
2023/08/31 04:04:24;;;;;;;30.23;27.52;;;17.30;99.90;;;;;;5036336;28;20037;-66
2023/08/31 04:06:50;;;;;;;32.97;30.08;;;17.30;99.90;;;;;;5031270;28;20045;-65
2023/08/31 04:09:15;;;;;;;33.10;30.02;;;17.30;99.90;;;;;;5022642;28;20056;-65
2023/08/31 04:11:41;;;;;;;32.42;29.63;;;17.40;99.90;;;;;;5029832;28;20143;-65
2023/08/31 04:14:06;;;;;;;31.92;28.98;;;17.40;99.90;;;;;;5032495;28;20443;-65
2023/08/31 04:16:32;;;;;;;31.10;28.40;;;17.40;99.90;;;;;;5032597;28;20089;-65
2023/08/31 04:18:58;;;;;;;32.90;29.85;;;17.30;99.90;;;;;;5028201;28;20396;-65
2023/08/31 04:21:24;;;;;;;32.88;29.98;;;17.50;99.90;;;;;;5031084;28;20127;-65
2023/08/31 04:23:49;;;;;;;32.35;29.50;;;17.40;99.90;;;;;;5032169;28;20033;-65
2023/08/31 04:26:17;;;;;;;32.80;29.80;;;17.50;99.90;;;;;;5032301;28;20112;-65
2023/08/31 04:28:42;;;;;;;33.97;30.95;;;17.70;99.90;;;;;;5030627;28;20041;-65
2023/08/31 04:31:08;;;;;;;34.33;31.33;;;17.50;99.90;;;;;;5030418;28;20038;-65
2023/08/31 04:33:35;;;;;;;33.85;30.95;;;17.60;99.90;;;;;;5034259;28;20095;-65
2023/08/31 04:36:00;;;;;;;32.05;29.17;;;17.40;99.90;;;;;;5028961;28;20053;-65
2023/08/31 04:38:26;;;;;;;30.55;27.95;;;17.70;99.90;;;;;;5031693;28;20483;-66
2023/08/31 04:40:51;;;;;;;32.00;29.25;;;17.70;99.90;;;;;;5030955;28;20095;-66
2023/08/31 04:43:17;;;;;;;33.65;30.45;;;17.40;99.90;;;;;;5031621;28;20049;-65
2023/08/31 04:45:43;;;;;;;33.58;30.48;;;17.70;99.90;;;;;;5031342;28;20048;-66
2023/08/31 04:48:08;;;;;;;34.30;31.23;;;17.60;99.90;;;;;;5035983;28;20136;-65
2023/08/31 04:50:34;;;;;;;32.20;29.40;;;17.70;99.90;;;;;;5032281;28;20059;-66
2023/08/31 04:52:59;;;;;;;33.58;30.38;;;17.70;99.90;;;;;;5030518;28;20037;-65
2023/08/31 04:55:25;;;;;;;32.65;29.63;;;17.70;99.90;;;;;;5031813;28;20857;-66
2023/08/31 04:57:51;;;;;;;31.27;28.55;;;17.60;99.90;;;;;;5030770;28;20095;-65
2023/08/31 05:00:17;;;;;;;31.88;29.08;;;17.80;99.90;;;;;;5031614;28;20046;-66
2023/08/31 05:02:43;;;;;;;31.08;28.25;;;17.70;99.90;;;;;;5028321;28;20080;-66
2023/08/31 05:05:09;;;;;;;28.92;26.48;;;18.00;99.90;;;;;;5033294;28;20096;-66
2023/08/31 05:07:34;;;;;;;29.85;27.23;;;17.80;99.90;;;;;;5029188;28;20033;-66
2023/08/31 05:10:00;;;;;;;29.95;27.48;;;17.90;99.90;;;;;;5029588;28;20045;-66
2023/08/31 05:12:26;;;;;;;31.23;28.63;;;18.20;99.90;;;;;;5023170;28;20438;-66
2023/08/31 05:14:51;;;;;;;30.38;27.88;;;18.90;99.90;;;;;;5028304;28;20046;-66
2023/08/31 05:17:17;;;;;;;29.25;26.85;;;18.20;99.90;;;;;;5043815;28;20124;-66
2023/08/31 05:19:43;;;;;;;28.45;25.95;;;18.50;99.90;;;;;;5028419;28;20040;-66
2023/08/31 05:22:09;;;;;;;28.27;25.75;;;18.40;99.90;;;;;;5030107;28;20168;-66
2023/08/31 05:24:34;;;;;;;27.40;25.17;;;18.70;99.90;;;;;;5030141;28;20079;-66
2023/08/31 05:27:00;;;;;;;28.98;26.25;;;18.50;99.90;;;;;;5025482;28;20602;-66
2023/08/31 05:29:25;;;;;;;20.42;18.65;;;18.60;99.90;;;;;;5029939;28;20051;-66
2023/08/31 05:31:52;;;;;;;21.85;20.15;;;18.70;99.90;;;;;;5028006;28;20052;-66
2023/08/31 05:34:21;;;;;;;20.70;19.00;;;18.70;99.90;;;;;;5027620;28;20049;-66
2023/08/31 05:36:46;;;;;;;19.70;18.05;;;18.70;99.90;;;;;;5035321;28;20112;-66
2023/08/31 05:39:12;;;;;;;21.13;19.33;;;18.80;99.90;;;;;;5028646;28;21369;-66
2023/08/31 05:41:40;;;;;;;19.55;17.92;;;18.70;99.90;;;;;;5025054;28;20037;-66
2023/08/31 05:44:06;;;;;;;19.20;17.67;;;18.70;99.90;;;;;;5026203;28;20039;-66
2023/08/31 05:46:32;;;;;;;19.75;18.25;;;18.70;1.00;;;;;;5027675;28;20041;-66
2023/08/31 05:48:58;;;;;;;19.42;17.75;;;18.90;39.30;;;;;;5029398;28;20368;-66
2023/08/31 05:51:24;;;;;;;18.50;17.13;;;18.90;99.90;;;;;;5025488;28;20052;-66
2023/08/31 05:53:49;;;;;;;20.23;18.73;;;18.90;1.00;;;;;;5028895;28;20049;-66
2023/08/31 05:56:15;;;;;;;18.98;17.30;;;18.90;99.90;;;;;;5031526;28;20557;-66
2023/08/31 05:58:40;;;;;;;20.98;19.00;;;18.90;43.90;;;;;;5037933;28;20585;-65
2023/08/31 06:01:07;;;;;;;17.60;16.20;;;19.00;1.00;;;;;;5027288;28;20695;-66
2023/08/31 06:03:32;;;;;;;20.45;18.80;;;18.90;99.90;;;;;;5030549;28;20109;-66
2023/08/31 06:05:59;;;;;;;23.35;21.55;;;19.10;99.90;;;;;;5013490;28;20215;-66
2023/08/31 06:08:24;;;;;;;23.83;21.58;;;19.10;99.90;;;;;;5024941;28;20217;-65
2023/08/31 06:10:51;;;;;;;20.20;18.48;;;19.20;99.90;;;;;;5037026;28;20812;-66
2023/08/31 06:13:17;;;;;;;19.55;17.92;;;19.10;99.90;;;;;;5027124;28;20037;-65
2023/08/31 06:15:44;;;;;;;21.42;19.80;;;19.30;99.90;;;;;;5024770;28;20699;-66
2023/08/31 06:18:10;;;;;;;26.80;23.25;;;19.30;99.90;;;;;;5022563;28;20184;-66
2023/08/31 06:20:35;;;;;;;24.45;22.35;;;19.30;99.90;;;;;;5027904;28;20120;-65
2023/08/31 06:23:02;;;;;;;23.85;21.75;;;19.30;1.00;;;;;;5026079;28;20048;-65
2023/08/31 06:25:28;;;;;;;24.00;21.85;;;19.40;39.60;;;;;;5024746;28;20424;-64
2023/08/31 06:27:54;;;;;;;21.88;20.15;;;19.40;79.20;;;;;;5026182;28;20038;-65
2023/08/31 06:30:19;;;;;;;22.70;20.85;;;19.30;15.50;;;;;;5024203;28;20914;-64
2023/08/31 06:32:47;;;;;;;22.95;20.98;;;19.30;1.00;;;;;;5028116;28;20068;-64
2023/08/31 06:35:13;;;;;;;21.63;19.48;;;19.30;1.00;;;;;;5029135;28;20044;-64
2023/08/31 06:37:39;;;;;;;22.27;20.38;;;19.40;1.00;;;;;;5022659;28;20076;-64
2023/08/31 06:40:09;;;;;;;21.58;19.77;;;19.30;99.90;;;;;;5029078;28;20061;-66
2023/08/31 06:42:38;;;;;;;20.48;18.83;;;19.50;1.00;;;;;;5023928;28;20097;-71
2023/08/31 06:45:05;;;;;;;19.35;17.85;;;19.30;99.90;;;;;;5024445;28;20123;-65
2023/08/31 06:47:31;;;;;;;16.98;15.57;;;19.50;99.90;;;;;;5023166;28;20038;-66
2023/08/31 06:50:00;;;;;;;21.05;19.15;;;19.60;73.60;;;;;;5025333;28;20098;-66
2023/08/31 06:52:26;;;;;;;20.20;18.40;;;19.60;1.00;;;;;;5019042;28;20041;-65
2023/08/31 06:54:56;;;;;;;21.05;19.13;;;19.60;99.90;;;;;;5026373;28;20083;-66
2023/08/31 06:57:25;;;;;;;19.40;17.90;;;19.70;99.90;;;;;;5020319;28;20040;-66
2023/08/31 06:59:50;;;;;;;20.40;18.70;;;19.80;1.00;;;;;;5004474;28;20049;-65
2023/08/31 07:02:16;;;;;;;21.40;19.70;;;19.90;1.00;;;;;;5023114;28;20049;-66
2023/08/31 07:04:42;;;;;;;19.92;18.23;;;20.30;1.00;;;;;;5024811;28;20559;-66
2023/08/31 07:07:08;;;;;;;18.23;16.83;;;19.90;1.00;;;;;;5024175;28;20075;-66
2023/08/31 07:09:34;;;;;;;18.77;17.15;;;19.90;1.00;;;;;;5027261;28;20049;-66
2023/08/31 07:12:01;;;;;;;23.30;21.42;;;20.20;1.00;;;;;;5028514;28;20132;-66
2023/08/31 07:14:27;;;;;;;32.63;27.50;;;20.20;47.40;;;;;;5026982;28;20107;-65
2023/08/31 07:16:52;;;;;;;24.15;21.75;;;20.30;99.90;;;;;;5025790;28;20053;-65
2023/08/31 07:19:18;;;;;;;28.08;25.38;;;20.20;99.90;;;;;;5025787;28;20037;-68
2023/08/31 07:21:43;;;;;;;27.88;25.20;;;20.00;1.00;;;;;;5021203;28;20034;-69
2023/08/31 07:24:09;;;;;;;23.67;21.77;;;19.80;99.90;;;;;;5018574;28;20045;-68
2023/08/31 07:26:35;;;;;;;24.58;22.30;;;19.50;99.90;;;;;;5020748;28;20053;-69
2023/08/31 07:29:04;;;;;;;28.13;25.73;;;19.40;99.90;;;;;;5027239;28;20037;-69
2023/08/31 07:31:30;;;;;;;31.35;28.55;;;19.20;99.90;;;;;;5017807;28;20046;-68
2023/08/31 07:33:56;;;;;;;32.63;29.58;;;19.20;34.30;;;;;;5020684;28;20503;-68
2023/08/31 07:36:22;;;;;;;32.03;29.25;;;19.40;1.00;;;;;;5052411;28;20116;-67
2023/08/31 07:38:47;;;;;;;30.77;28.02;;;19.40;99.90;;;;;;5042022;28;20079;-69
2023/08/31 07:41:13;;;;;;;31.77;28.88;;;19.40;99.90;;;;;;5023566;28;20049;-68
2023/08/31 07:43:38;;;;;;;33.13;29.95;;;19.40;69.20;;;;;;5023953;28;20099;-69
2023/08/31 07:46:04;;;;;;;31.35;28.23;;;19.80;1.00;;;;;;5023636;28;20069;-67
2023/08/31 07:48:30;;;;;;;31.02;27.98;;;20.20;99.90;;;;;;5055333;28;20484;-69
2023/08/31 07:50:55;;;;;;;29.60;26.80;;;20.20;99.90;;;;;;5024590;28;20068;-69
2023/08/31 07:53:21;;;;;;;29.15;26.23;;;20.30;1.00;;;;;;5026289;28;20041;-69
2023/08/31 07:55:54;;;;;;;25.33;23.13;;;20.50;99.90;;;;;;5020085;28;20041;-69
2023/08/31 07:58:23;;;;;;;22.13;20.10;;;20.80;1.00;;;;;;5020921;28;20040;-68
2023/08/31 08:00:51;;;;;;;23.10;21.10;;;21.10;22.90;;;;;;5024795;28;20653;-68
2023/08/31 08:03:17;;;;;;;20.95;19.10;;;21.40;66.80;;;;;;5036159;28;20041;-69
2023/08/31 08:05:43;;;;;;;17.02;15.60;;;21.40;1.00;;;;;;5050688;28;21823;-68
2023/08/31 08:08:09;;;;;;;16.80;15.40;;;21.40;99.90;;;;;;5026191;28;20041;-68
2023/08/31 08:10:35;;;;;;;20.30;18.50;;;21.40;99.90;;;;;;5025286;28;20041;-68
2023/08/31 08:13:01;;;;;;;19.77;18.20;;;21.70;1.00;;;;;;5023653;28;20060;-68
2023/08/31 08:15:26;;;;;;;19.90;17.98;;;21.90;99.90;;;;;;5005485;28;20507;-69
2023/08/31 08:17:53;;;;;;;21.08;19.38;;;21.80;16.30;;;;;;5024318;28;20060;-68
2023/08/31 08:20:19;;;;;;;15.98;14.57;;;21.90;1.00;;;;;;5023946;28;20048;-69
2023/08/31 08:22:45;;;;;;;18.35;16.95;;;21.90;99.90;;;;;;5020103;28;20041;-69
2023/08/31 08:25:10;;;;;;;15.05;13.95;;;21.80;65.30;;;;;;5024552;28;20684;-68
2023/08/31 08:27:36;;;;;;;18.90;17.50;;;21.70;1.00;;;;;;5025223;28;20069;-68
2023/08/31 08:30:03;;;;;;;22.00;20.17;;;21.40;99.90;;;;;;5025746;28;20048;-64
2023/08/31 08:32:28;;;;;;;21.88;19.67;;;21.40;99.90;;;;;;5026769;28;20091;-66
2023/08/31 08:34:54;;;;;;;22.00;20.27;;;21.70;99.90;;;;;;5026872;28;20065;-64
2023/08/31 08:37:20;;;;;;;21.33;19.58;;;21.50;1.00;;;;;;5022819;28;20045;-64
2023/08/31 08:39:50;;;;;;;22.88;21.05;;;21.50;1.00;;;;;;5024790;28;20092;-64
2023/08/31 08:42:18;;;;;;;24.58;22.40;;;21.70;1.00;;;;;;5022330;28;20044;-65
2023/08/31 08:44:44;;;;;;;21.50;19.67;;;21.80;1.00;;;;;;5022988;28;20038;-65
2023/08/31 08:47:12;;;;;;;21.00;19.20;;;22.00;1.00;;;;;;5023031;28;20060;-65
2023/08/31 08:49:38;;;;;;;18.30;16.90;;;22.00;99.90;;;;;;5025871;28;20047;-64
2023/08/31 08:52:04;;;;;;;21.75;20.05;;;21.90;99.90;;;;;;5028066;28;20065;-64
2023/08/31 08:54:30;;;;;;;20.73;19.10;;;22.00;99.90;;;;;;5025435;28;20041;-67
2023/08/31 08:56:57;;;;;;;22.58;20.45;;;22.20;99.90;;;;;;5027715;28;20076;-65
2023/08/31 08:59:22;;;;;;;20.00;18.40;;;22.30;99.90;;;;;;5027066;28;20064;-65
2023/08/31 09:01:48;;;;;;;20.77;19.05;;;22.40;99.90;;;;;;5025521;28;20042;-65
2023/08/31 09:04:14;;;;;;;22.80;21.10;;;22.00;92.60;;;;;;5025820;28;20095;-64
2023/08/31 09:06:40;;;;;;;21.40;19.70;;;21.70;37.20;;;;;;5020847;28;20067;-68
2023/08/31 09:09:08;;;;;;;23.90;21.85;;;21.30;14.50;;;;;;5026587;28;20136;-65
2023/08/31 09:11:35;;;;;;;25.08;22.40;;;21.10;35.20;;;;;;5028067;28;20498;-66
2023/08/31 09:14:19;;;;;;;21.92;20.02;;;21.20;99.90;;;;;;5025714;28;20077;-64
2023/08/31 09:16:47;;;;;;;17.25;15.93;;;21.60;99.90;;;;;;5025394;28;20072;-64
2023/08/31 09:19:19;;;;;;;18.65;17.13;;;21.80;99.90;;;;;;5027479;28;20030;-65
2023/08/31 09:21:45;;;;;;;22.33;20.48;;;22.30;34.20;;;;;;5021427;28;20041;-65
2023/08/31 09:24:13;;;;;;;20.00;18.50;;;22.50;89.80;;;;;;5027037;28;20041;-68
2023/08/31 09:26:49;;;;;;;22.15;20.40;;;22.70;62.10;;;;;;5028989;28;20107;-65
2023/08/31 09:29:15;;;;;;;23.52;21.58;;;22.40;15.60;;;;;;5040456;28;20048;-64
2023/08/31 09:31:46;;;;;;;22.90;21.10;;;22.40;10.60;;;;;;5029107;28;20399;-66
2023/08/31 09:34:12;;;;;;;23.48;21.50;;;22.60;51.40;;;;;;5026520;28;20041;-64
2023/08/31 09:36:38;;;;;;;24.27;22.33;;;22.30;23.30;;;;;;5026142;28;20057;-67
2023/08/31 09:39:06;;;;;;;25.50;23.00;;;22.10;79.00;;;;;;5028854;28;20663;-65
2023/08/31 09:41:34;;;;;;;21.00;19.27;;;22.10;88.90;;;;;;5027263;28;20049;-64
2023/08/31 09:44:16;;;;;;;23.73;21.73;;;21.70;99.90;;;;;;5026658;28;20084;-65
2023/08/31 09:46:43;;;;;;;28.67;25.98;;;21.50;99.90;;;;;;5026185;28;20049;-66
2023/08/31 09:49:11;;;;;;;27.92;25.50;;;21.00;99.90;;;;;;5025641;28;20046;-65
2023/08/31 09:51:43;;;;;;;30.42;27.73;;;20.40;99.90;;;;;;5027697;28;20065;-63
2023/08/31 09:54:12;;;;;;;35.92;29.55;;;20.20;1.00;;;;;;5026989;28;20464;-65
2023/08/31 09:56:41;;;;;;;31.83;28.90;;;20.30;1.00;;;;;;5026346;28;20045;-64
2023/08/31 09:59:08;;;;;;;32.20;29.33;;;20.10;99.90;;;;;;5026948;28;20410;-64
2023/08/31 10:01:33;;;;;;;29.13;26.52;;;20.50;6.30;;;;;;5026538;28;20057;-63
2023/08/31 10:03:59;;;;;;;23.15;21.15;;;20.70;99.90;;;;;;5026017;28;20048;-63
2023/08/31 10:06:27;;;;;;;27.27;24.88;;;20.80;99.90;;;;;;5025454;28;20200;-64
2023/08/31 10:08:53;;;;;;;20.90;19.40;;;21.20;99.90;;;;;;5028156;28;20037;-64
2023/08/31 10:11:19;;;;;;;20.58;19.02;;;21.10;99.90;;;;;;5025414;28;20671;-64
2023/08/31 10:13:47;;;;;;;22.85;21.15;;;21.10;18.40;;;;;;5027315;28;20040;-64
2023/08/31 10:16:13;;;;;;;22.45;20.65;;;21.00;1.00;;;;;;5025920;28;20136;-63
2023/08/31 10:18:39;;;;;;;19.85;18.33;;;21.30;32.00;;;;;;5022498;28;20466;-65
2023/08/31 10:21:05;;;;;;;15.52;14.18;;;21.50;1.00;;;;;;5028531;28;20034;-63
2023/08/31 10:23:32;;;;;;;17.15;15.85;;;21.80;99.90;;;;;;5026561;28;20038;-64
2023/08/31 10:25:57;;;;;;;17.45;16.15;;;21.50;99.90;;;;;;5028147;28;20093;-64
2023/08/31 10:28:24;;;;;;;17.30;15.57;;;21.50;99.90;;;;;;5038886;28;20049;-64
2023/08/31 10:31:08;;;;;;;19.38;17.75;;;21.40;1.00;;;;;;5026496;28;20033;-65
2023/08/31 10:33:41;;;;;;;19.60;17.90;;;21.20;1.00;;;;;;5024899;28;20041;-65
2023/08/31 10:36:16;;;;;;;18.35;16.83;;;21.40;1.00;;;;;;5023662;28;20050;-64
2023/08/31 10:38:44;;;;;;;16.27;15.05;;;21.60;1.00;;;;;;5025971;28;20095;-65
2023/08/31 10:41:10;;;;;;;15.40;14.05;;;21.40;99.90;;;;;;5025572;28;20124;-63
2023/08/31 10:43:49;;;;;;;15.25;13.77;;;21.50;99.90;;;;;;5023333;28;20054;-64
2023/08/31 10:46:19;;;;;;;14.40;13.02;;;21.70;99.90;;;;;;5038709;28;20053;-65
2023/08/31 10:48:52;;;;;;;16.70;15.25;;;21.80;99.90;;;;;;5022760;28;20033;-67
2023/08/31 10:51:20;;;;;;;20.23;18.52;;;21.60;99.90;;;;;;5037595;28;20041;-69
2023/08/31 10:53:46;;;;;;;19.52;17.63;;;21.40;99.90;;;;;;5026381;28;20041;-69
2023/08/31 10:56:12;;;;;;;18.20;16.45;;;21.40;99.90;;;;;;5024784;28;20042;-67
2023/08/31 10:58:38;;;;;;;18.02;16.52;;;21.30;99.90;;;;;;5024858;28;20526;-68
2023/08/31 11:01:03;;;;;;;18.13;15.68;;;21.20;99.90;;;;;;5026064;28;20061;-68
2023/08/31 11:03:32;;;;;;;19.33;17.77;;;21.40;99.90;;;;;;5025595;28;20041;-68
2023/08/31 11:05:57;;;;;;;15.63;14.23;;;21.60;99.90;;;;;;5021608;28;20091;-69
2023/08/31 11:08:26;;;;;;;19.65;17.73;;;21.70;99.90;;;;;;5026109;28;20128;-68
2023/08/31 11:10:52;;;;;;;16.83;15.23;;;21.70;99.90;;;;;;5025295;28;20041;-69
2023/08/31 11:13:23;;;;;;;17.15;15.60;;;21.80;99.90;;;;;;5027368;28;20056;-68
2023/08/31 11:15:48;;;;;;;16.77;15.25;;;22.00;99.90;;;;;;5022413;28;20045;-68
2023/08/31 11:18:17;;;;;;;16.85;15.35;;;22.00;99.90;;;;;;5024280;28;20036;-68
2023/08/31 11:20:43;;;;;;;14.30;13.00;;;22.20;99.90;;;;;;5026033;28;20120;-68
2023/08/31 11:23:10;;;;;;;15.23;13.82;;;22.20;99.90;;;;;;5028499;28;20511;-68
2023/08/31 11:25:35;;;;;;;14.88;13.48;;;22.20;99.90;;;;;;5024104;28;20546;-67
2023/08/31 11:28:07;;;;;;;20.38;18.30;;;22.30;99.90;;;;;;5025236;28;20130;-68
2023/08/31 11:30:33;;;;;;;21.02;19.00;;;22.40;99.90;;;;;;5022469;28;20041;-68
2023/08/31 11:33:04;;;;;;;17.73;15.98;;;22.60;99.90;;;;;;5027651;28;20057;-68
2023/08/31 11:35:37;;;;;;;18.38;16.65;;;22.50;99.90;;;;;;5029338;28;20053;-68
2023/08/31 11:38:04;;;;;;;20.88;17.95;;;22.00;71.50;;;;;;5028543;28;20039;-67
2023/08/31 11:40:29;;;;;;;19.98;18.08;;;21.80;90.10;;;;;;5030261;28;20506;-68
2023/08/31 11:43:00;;;;;;;25.20;23.10;;;21.60;66.20;;;;;;5028105;28;20072;-67
2023/08/31 11:45:26;;;;;;;27.65;25.25;;;20.80;99.90;;;;;;5030283;28;20388;-67
2023/08/31 11:47:53;;;;;;;28.80;26.50;;;20.10;1.00;;;;;;5028907;28;20041;-67
2023/08/31 11:50:19;;;;;;;30.50;27.42;;;19.70;1.00;;;;;;5028759;28;20049;-68
2023/08/31 11:52:45;;;;;;;33.55;29.90;;;19.70;66.00;;;;;;5027540;28;20041;-68
2023/08/31 11:55:13;;;;;;;32.03;28.75;;;20.00;99.90;;;;;;5025040;28;21268;-66
2023/08/31 11:57:38;;;;;;;29.77;26.85;;;20.10;99.90;;;;;;5026381;28;20324;-68
2023/08/31 12:00:05;;;;;;;28.95;26.25;;;20.30;1.00;;;;;;5008556;28;20080;-64
2023/08/31 12:02:37;;;;;;;26.77;24.02;;;20.40;17.20;;;;;;5029328;28;20112;-64
2023/08/31 12:05:05;;;;;;;29.50;26.40;;;20.70;99.90;;;;;;5027640;28;20503;-64
2023/08/31 12:07:31;;;;;;;25.35;21.98;;;20.70;99.90;;;;;;5026472;28;20055;-63
2023/08/31 12:10:04;;;;;;;22.67;20.42;;;21.00;99.90;;;;;;5026968;28;20041;-62
2023/08/31 12:12:32;;;;;;;18.25;16.65;;;21.10;1.00;;;;;;5029936;28;20047;-63
2023/08/31 12:15:00;;;;;;;20.05;18.08;;;21.10;99.90;;;;;;5030347;28;20797;-63
2023/08/31 12:17:26;;;;;;;25.30;23.10;;;21.20;94.10;;;;;;5027336;28;20065;-67
2023/08/31 12:19:52;;;;;;;18.20;16.48;;;21.10;32.30;;;;;;5027714;28;20037;-64
2023/08/31 12:22:17;;;;;;;19.60;18.00;;;21.10;1.00;;;;;;5029645;28;20049;-63
2023/08/31 12:24:43;;;;;;;21.00;19.20;;;21.10;99.90;;;;;;5025952;28;20037;-66
2023/08/31 12:27:09;;;;;;;19.58;17.83;;;21.30;99.90;;;;;;5028333;28;20053;-66